Dennisville, NJ (08214)

1:55 AM EDT on March 26, 2017 (GMT -0400)
Historic Dennisville | | Change Station

Elev 20 ft 39.19 °N, 74.82 °W | Updated 1 second ago

Overcast
Overcast
45.9 °F
Feels Like 41 °F
N
10.0
Wind Variable Wind from East
Gusts 17.0 mph

Today
High -- | Low -- °F
--% Chance of Precip.
Yesterday
High -- | Low -- °F
Precip. -- in
Pressure 30.30 in
Visibility 10.0 miles
Clouds Mostly Cloudy 900 ft
Overcast 8500 ft
Windchill 41 °F
Dew Point 42 °F
Humidity 85%
Rainfall 0.00 in
Snow Depth Not available.
6:52 AM 7:17 PM
Waning Crescent, 5% visible
SPECI KWWD 260511Z AUTO 06016G23KT 10SM BKN009 OVC085 07/05 A3030 RMK AO2 TSNO $
Pressure 30.30 in
Visibility 10.0 miles
Clouds Mostly Cloudy 900 ft
Overcast 8500 ft
Windchill 41 °F
Dew Point 42 °F
Humidity 85%
Rainfall 0.00 in
Snow Depth Not available.
6:52 AM 7:17 PM
Waning Crescent, 5% visible
SPECI KWWD 260511Z AUTO 06016G23KT 10SM BKN009 OVC085 07/05 A3030 RMK AO2 TSNO $

Get Severe Weather Alerts

Thanks for signing up!

Be on the lookout for a verification email in your inbox.

You'll start receiving the daily forecast at 8 AM.

×

10-Day Weather Forecast

Almanac

Astronomy

Mar. 26, 2017 Rise Set
Actual Time
Civil Twilight
Nautical Twilight
Astronomical Twilight
Moon
Length of Visible Light
Length of Day
Tomorrow will be .
, % of the Moon is Illuminated

Today's Extremes

State Highs State Lows

Community

WunderPhotos

Upload Photos

1,962,540 photos uploaded!

WunderBlog® & News

Nearby

Air Quality

  Air Quality AQ Index Pollutant
Not available.

Snow Depth

Station Depth Elevation

Earthquake Activity

City Distance Mag. Time & Date
Minimum magnitude displayed is 2.5.

Earthquake Activity

City Distance Mag. Time & Date
Minimum magnitude displayed is 2.5.

Coastal Water Temperatures

Place Temperature

Stations

Nearby Weather Stations

Station Location Temp. Windchill Dew Point Humidity Wind Precip. Elev Updated Type
                   

Watches & Warnings

There are currently no watches in effect.